sensor_id;sensor_type;location;lat;lon;timestamp;temperature;humidity
64983;DHT22;62161;54.688;25.256;2022-09-28T00:01:44;10.91;87.20
64983;DHT22;62161;54.688;25.256;2022-09-28T00:04:10;10.92;87.09
64983;DHT22;62161;54.688;25.256;2022-09-28T00:06:36;10.94;87.11
64983;DHT22;62161;54.688;25.256;2022-09-28T00:09:02;10.92;87.07
64983;DHT22;62161;54.688;25.256;2022-09-28T00:11:28;10.91;87.08
64983;DHT22;62161;54.688;25.256;2022-09-28T00:13:56;10.89;87.09
64983;DHT22;62161;54.688;25.256;2022-09-28T00:16:28;10.85;87.12
64983;DHT22;62161;54.688;25.256;2022-09-28T00:18:54;10.84;87.11
64983;DHT22;62161;54.688;25.256;2022-09-28T00:21:22;10.82;87.09
64983;DHT22;62161;54.688;25.256;2022-09-28T00:23:53;10.84;87.15
64983;DHT22;62161;54.688;25.256;2022-09-28T00:26:38;10.84;87.21
64983;DHT22;62161;54.688;25.256;2022-09-28T00:29:07;10.81;87.14
64983;DHT22;62161;54.688;25.256;2022-09-28T00:31:36;10.82;87.19
64983;DHT22;62161;54.688;25.256;2022-09-28T00:34:02;10.85;87.15
64983;DHT22;62161;54.688;25.256;2022-09-28T00:36:30;10.87;87.01
64983;DHT22;62161;54.688;25.256;2022-09-28T00:38:57;10.79;87.13
64983;DHT22;62161;54.688;25.256;2022-09-28T00:41:24;10.78;87.26
64983;DHT22;62161;54.688;25.256;2022-09-28T00:43:50;10.74;87.28
64983;DHT22;62161;54.688;25.256;2022-09-28T00:46:32;10.68;87.63
64983;DHT22;62161;54.688;25.256;2022-09-28T00:49:02;10.57;87.89
64983;DHT22;62161;54.688;25.256;2022-09-28T00:51:29;10.54;88.03
64983;DHT22;62161;54.688;25.256;2022-09-28T00:53:56;10.54;88.17
64983;DHT22;62161;54.688;25.256;2022-09-28T00:56:25;10.54;88.11
64983;DHT22;62161;54.688;25.256;2022-09-28T00:58:52;10.54;88.17
64983;DHT22;62161;54.688;25.256;2022-09-28T01:01:19;10.51;88.21
64983;DHT22;62161;54.688;25.256;2022-09-28T01:03:45;10.50;88.04
64983;DHT22;62161;54.688;25.256;2022-09-28T01:06:18;10.51;88.06
64983;DHT22;62161;54.688;25.256;2022-09-28T01:08:44;10.48;88.08
64983;DHT22;62161;54.688;25.256;2022-09-28T01:11:11;10.47;88.08
64983;DHT22;62161;54.688;25.256;2022-09-28T01:13:36;10.48;87.94
64983;DHT22;62161;54.688;25.256;2022-09-28T01:21:19;10.40;88.10
64983;DHT22;62161;54.688;25.256;2022-09-28T01:27:09;10.40;88.05
64983;DHT22;62161;54.688;25.256;2022-09-28T01:29:44;10.39;88.03
64983;DHT22;62161;54.688;25.256;2022-09-28T01:32:25;10.41;87.96
64983;DHT22;62161;54.688;25.256;2022-09-28T01:35:12;10.43;87.88
64983;DHT22;62161;54.688;25.256;2022-09-28T01:40:11;10.40;87.78
64983;DHT22;62161;54.688;25.256;2022-09-28T01:42:40;10.43;87.81
64983;DHT22;62161;54.688;25.256;2022-09-28T01:45:13;10.41;87.77
64983;DHT22;62161;54.688;25.256;2022-09-28T01:47:40;10.41;87.71
64983;DHT22;62161;54.688;25.256;2022-09-28T01:50:10;10.46;87.69
64983;DHT22;62161;54.688;25.256;2022-09-28T01:52:46;10.44;87.64
64983;DHT22;62161;54.688;25.256;2022-09-28T01:57:55;10.43;87.64
64983;DHT22;62161;54.688;25.256;2022-09-28T02:00:23;10.44;87.58
64983;DHT22;62161;54.688;25.256;2022-09-28T02:03:04;10.40;87.62
64983;DHT22;62161;54.688;25.256;2022-09-28T02:05:32;10.40;87.78
64983;DHT22;62161;54.688;25.256;2022-09-28T02:10:33;10.41;87.71
64983;DHT22;62161;54.688;25.256;2022-09-28T02:13:14;10.39;87.60
64983;DHT22;62161;54.688;25.256;2022-09-28T02:16:00;10.37;87.63
64983;DHT22;62161;54.688;25.256;2022-09-28T02:18:26;10.37;87.61
64983;DHT22;62161;54.688;25.256;2022-09-28T02:21:14;10.37;87.46
64983;DHT22;62161;54.688;25.256;2022-09-28T02:23:50;10.34;87.39
64983;DHT22;62161;54.688;25.256;2022-09-28T02:26:19;10.36;87.35
64983;DHT22;62161;54.688;25.256;2022-09-28T02:28:46;10.33;87.49
64983;DHT22;62161;54.688;25.256;2022-09-28T02:31:12;10.32;87.39
64983;DHT22;62161;54.688;25.256;2022-09-28T02:33:39;10.30;87.20
64983;DHT22;62161;54.688;25.256;2022-09-28T02:36:07;10.37;87.04
64983;DHT22;62161;54.688;25.256;2022-09-28T02:38:32;10.29;87.23
64983;DHT22;62161;54.688;25.256;2022-09-28T02:41:14;10.24;87.23
64983;DHT22;62161;54.688;25.256;2022-09-28T02:46:44;10.21;87.37
64983;DHT22;62161;54.688;25.256;2022-09-28T02:54:47;10.19;87.48
64983;DHT22;62161;54.688;25.256;2022-09-28T02:57:32;10.17;87.58
64983;DHT22;62161;54.688;25.256;2022-09-28T03:05:24;10.09;87.60
64983;DHT22;62161;54.688;25.256;2022-09-28T03:08:08;10.05;87.61
64983;DHT22;62161;54.688;25.256;2022-09-28T03:10:48;10.03;87.74
64983;DHT22;62161;54.688;25.256;2022-09-28T03:13:15;9.99;87.82
64983;DHT22;62161;54.688;25.256;2022-09-28T03:15:41;9.93;87.89
64983;DHT22;62161;54.688;25.256;2022-09-28T03:18:07;9.93;87.91
64983;DHT22;62161;54.688;25.256;2022-09-28T03:20:33;9.92;87.78
64983;DHT22;62161;54.688;25.256;2022-09-28T03:22:59;9.88;87.86
64983;DHT22;62161;54.688;25.256;2022-09-28T03:25:25;9.88;87.73
64983;DHT22;62161;54.688;25.256;2022-09-28T03:27:50;9.82;87.93
64983;DHT22;62161;54.688;25.256;2022-09-28T03:30:16;9.85;87.91
64983;DHT22;62161;54.688;25.256;2022-09-28T03:32:42;9.81;87.84
64983;DHT22;62161;54.688;25.256;2022-09-28T03:35:08;9.78;87.80
64983;DHT22;62161;54.688;25.256;2022-09-28T03:37:34;9.74;88.00
64983;DHT22;62161;54.688;25.256;2022-09-28T03:40:00;9.74;87.94
64983;DHT22;62161;54.688;25.256;2022-09-28T03:42:25;9.68;88.21
64983;DHT22;62161;54.688;25.256;2022-09-28T03:44:50;9.63;88.22
64983;DHT22;62161;54.688;25.256;2022-09-28T03:47:16;9.59;88.26
64983;DHT22;62161;54.688;25.256;2022-09-28T03:49:42;9.58;88.34
64983;DHT22;62161;54.688;25.256;2022-09-28T03:52:08;9.51;88.29
64983;DHT22;62161;54.688;25.256;2022-09-28T03:54:33;9.51;88.34
64983;DHT22;62161;54.688;25.256;2022-09-28T03:56:59;9.47;88.49
64983;DHT22;62161;54.688;25.256;2022-09-28T03:59:24;9.45;88.48
64983;DHT22;62161;54.688;25.256;2022-09-28T04:01:50;9.41;88.37
64983;DHT22;62161;54.688;25.256;2022-09-28T04:04:16;9.37;88.44
64983;DHT22;62161;54.688;25.256;2022-09-28T04:06:42;9.35;88.17
64983;DHT22;62161;54.688;25.256;2022-09-28T04:09:07;9.35;88.23
64983;DHT22;62161;54.688;25.256;2022-09-28T04:11:33;9.27;88.24
64983;DHT22;62161;54.688;25.256;2022-09-28T04:13:59;9.33;88.09
64983;DHT22;62161;54.688;25.256;2022-09-28T04:16:24;9.30;87.94
64983;DHT22;62161;54.688;25.256;2022-09-28T04:18:50;9.27;88.03
64983;DHT22;62161;54.688;25.256;2022-09-28T04:21:17;9.21;88.20
64983;DHT22;62161;54.688;25.256;2022-09-28T04:23:44;9.19;88.16
64983;DHT22;62161;54.688;25.256;2022-09-28T04:26:15;9.16;88.16
64983;DHT22;62161;54.688;25.256;2022-09-28T04:28:42;9.12;88.29
64983;DHT22;62161;54.688;25.256;2022-09-28T04:31:26;9.10;88.20
64983;DHT22;62161;54.688;25.256;2022-09-28T04:33:52;9.10;88.19
64983;DHT22;62161;54.688;25.256;2022-09-28T04:36:18;9.07;88.19
64983;DHT22;62161;54.688;25.256;2022-09-28T04:38:44;9.06;88.05
64983;DHT22;62161;54.688;25.256;2022-09-28T04:41:09;9.09;87.97
64983;DHT22;62161;54.688;25.256;2022-09-28T04:43:36;9.02;87.96
64983;DHT22;62161;54.688;25.256;2022-09-28T04:46:02;9.04;87.95
64983;DHT22;62161;54.688;25.256;2022-09-28T04:48:30;8.97;87.96
64983;DHT22;62161;54.688;25.256;2022-09-28T04:50:57;8.99;87.94
64983;DHT22;62161;54.688;25.256;2022-09-28T04:53:24;9.00;87.78
64983;DHT22;62161;54.688;25.256;2022-09-28T04:55:56;9.03;87.64
64983;DHT22;62161;54.688;25.256;2022-09-28T04:58:22;9.02;87.49
64983;DHT22;62161;54.688;25.256;2022-09-28T05:00:48;8.96;87.66
64983;DHT22;62161;54.688;25.256;2022-09-28T05:03:16;8.92;87.64
64983;DHT22;62161;54.688;25.256;2022-09-28T05:05:48;8.97;87.56
64983;DHT22;62161;54.688;25.256;2022-09-28T05:08:14;9.03;87.34
64983;DHT22;62161;54.688;25.256;2022-09-28T05:10:40;9.04;87.19
64983;DHT22;62161;54.688;25.256;2022-09-28T05:13:06;9.10;87.12
64983;DHT22;62161;54.688;25.256;2022-09-28T05:15:36;9.19;86.87
64983;DHT22;62161;54.688;25.256;2022-09-28T05:18:03;9.23;86.58
64983;DHT22;62161;54.688;25.256;2022-09-28T05:20:28;9.28;86.32
64983;DHT22;62161;54.688;25.256;2022-09-28T05:22:54;9.28;86.07
64983;DHT22;62161;54.688;25.256;2022-09-28T05:25:19;9.28;86.12
64983;DHT22;62161;54.688;25.256;2022-09-28T05:27:45;9.31;85.77
64983;DHT22;62161;54.688;25.256;2022-09-28T05:30:11;9.38;85.58
64983;DHT22;62161;54.688;25.256;2022-09-28T05:32:42;9.40;85.28
64983;DHT22;62161;54.688;25.256;2022-09-28T05:35:08;9.67;84.36
64983;DHT22;62161;54.688;25.256;2022-09-28T05:37:35;9.58;84.51
64983;DHT22;62161;54.688;25.256;2022-09-28T05:40:01;9.58;84.72
64983;DHT22;62161;54.688;25.256;2022-09-28T05:42:28;9.61;84.36
64983;DHT22;62161;54.688;25.256;2022-09-28T05:44:54;9.63;84.29
64983;DHT22;62161;54.688;25.256;2022-09-28T05:47:19;9.71;84.20
64983;DHT22;62161;54.688;25.256;2022-09-28T05:49:44;9.72;83.60
64983;DHT22;62161;54.688;25.256;2022-09-28T05:52:10;9.86;83.21
64983;DHT22;62161;54.688;25.256;2022-09-28T05:54:35;9.88;83.20
64983;DHT22;62161;54.688;25.256;2022-09-28T05:57:01;10.03;82.53
64983;DHT22;62161;54.688;25.256;2022-09-28T05:59:26;10.05;82.21
64983;DHT22;62161;54.688;25.256;2022-09-28T06:01:54;10.06;82.16
64983;DHT22;62161;54.688;25.256;2022-09-28T06:04:19;10.03;82.08
64983;DHT22;62161;54.688;25.256;2022-09-28T06:06:45;10.19;82.15
64983;DHT22;62161;54.688;25.256;2022-09-28T06:09:10;10.06;81.95
64983;DHT22;62161;54.688;25.256;2022-09-28T06:11:35;10.09;81.99
64983;DHT22;62161;54.688;25.256;2022-09-28T06:14:01;10.19;81.55
64983;DHT22;62161;54.688;25.256;2022-09-28T06:16:26;10.36;80.89
64983;DHT22;62161;54.688;25.256;2022-09-28T06:18:51;10.34;81.10
64983;DHT22;62161;54.688;25.256;2022-09-28T06:21:17;10.30;81.02
64983;DHT22;62161;54.688;25.256;2022-09-28T06:23:42;10.27;81.25
64983;DHT22;62161;54.688;25.256;2022-09-28T06:26:08;10.16;81.51
64983;DHT22;62161;54.688;25.256;2022-09-28T06:28:33;10.16;81.55
64983;DHT22;62161;54.688;25.256;2022-09-28T06:30:59;10.14;81.74
64983;DHT22;62161;54.688;25.256;2022-09-28T06:33:25;10.16;81.70
64983;DHT22;62161;54.688;25.256;2022-09-28T06:35:51;10.17;81.71
64983;DHT22;62161;54.688;25.256;2022-09-28T06:38:16;10.24;81.51
64983;DHT22;62161;54.688;25.256;2022-09-28T06:40:42;10.29;81.20
64983;DHT22;62161;54.688;25.256;2022-09-28T06:43:12;10.43;80.97
64983;DHT22;62161;54.688;25.256;2022-09-28T06:45:40;10.61;80.40
64983;DHT22;62161;54.688;25.256;2022-09-28T06:48:06;10.63;80.50
64983;DHT22;62161;54.688;25.256;2022-09-28T06:50:37;10.61;80.49
64983;DHT22;62161;54.688;25.256;2022-09-28T06:53:05;10.74;79.90
64983;DHT22;62161;54.688;25.256;2022-09-28T06:55:31;10.81;79.91
64983;DHT22;62161;54.688;25.256;2022-09-28T06:57:58;10.82;79.43
64983;DHT22;62161;54.688;25.256;2022-09-28T07:00:26;10.82;79.38
64983;DHT22;62161;54.688;25.256;2022-09-28T07:02:52;10.87;79.33
64983;DHT22;62161;54.688;25.256;2022-09-28T07:05:17;10.82;79.55
64983;DHT22;62161;54.688;25.256;2022-09-28T07:07:44;10.92;78.93
64983;DHT22;62161;54.688;25.256;2022-09-28T07:10:12;10.87;78.46
64983;DHT22;62161;54.688;25.256;2022-09-28T07:12:38;10.79;78.87
64983;DHT22;62161;54.688;25.256;2022-09-28T07:15:05;10.81;79.05
64983;DHT22;62161;54.688;25.256;2022-09-28T07:17:31;10.81;79.03
64983;DHT22;62161;54.688;25.256;2022-09-28T07:19:59;10.79;78.90
64983;DHT22;62161;54.688;25.256;2022-09-28T07:22:24;10.81;78.44
64983;DHT22;62161;54.688;25.256;2022-09-28T07:24:49;10.95;77.79
64983;DHT22;62161;54.688;25.256;2022-09-28T07:27:15;11.04;77.51
64983;DHT22;62161;54.688;25.256;2022-09-28T07:29:41;11.20;77.27
64983;DHT22;62161;54.688;25.256;2022-09-28T07:32:06;11.47;76.27
64983;DHT22;62161;54.688;25.256;2022-09-28T07:34:33;11.67;75.63
64983;DHT22;62161;54.688;25.256;2022-09-28T07:37:04;11.74;74.70
64983;DHT22;62161;54.688;25.256;2022-09-28T07:39:30;11.85;74.07
64983;DHT22;62161;54.688;25.256;2022-09-28T07:41:56;11.77;74.84
64983;DHT22;62161;54.688;25.256;2022-09-28T07:44:21;11.73;74.97
64983;DHT22;62161;54.688;25.256;2022-09-28T07:46:46;11.60;75.48
64983;DHT22;62161;54.688;25.256;2022-09-28T07:49:12;11.62;75.18
64983;DHT22;62161;54.688;25.256;2022-09-28T07:51:39;11.85;74.58
64983;DHT22;62161;54.688;25.256;2022-09-28T07:54:07;11.60;74.59
64983;DHT22;62161;54.688;25.256;2022-09-28T07:56:32;11.67;75.04
64983;DHT22;62161;54.688;25.256;2022-09-28T07:58:58;11.66;75.11
64983;DHT22;62161;54.688;25.256;2022-09-28T08:01:24;11.78;74.98
64983;DHT22;62161;54.688;25.256;2022-09-28T08:03:50;12.01;73.92
64983;DHT22;62161;54.688;25.256;2022-09-28T08:06:20;12.14;73.02
64983;DHT22;62161;54.688;25.256;2022-09-28T08:08:45;11.75;74.09
64983;DHT22;62161;54.688;25.256;2022-09-28T08:11:12;11.71;74.57
64983;DHT22;62161;54.688;25.256;2022-09-28T08:13:38;12.02;73.91
64983;DHT22;62161;54.688;25.256;2022-09-28T08:16:04;11.90;74.20
64983;DHT22;62161;54.688;25.256;2022-09-28T08:18:31;12.15;73.30
64983;DHT22;62161;54.688;25.256;2022-09-28T08:20:57;12.04;73.51
64983;DHT22;62161;54.688;25.256;2022-09-28T08:23:41;12.28;72.74
64983;DHT22;62161;54.688;25.256;2022-09-28T08:26:06;12.46;72.51
64983;DHT22;62161;54.688;25.256;2022-09-28T08:28:32;12.48;71.92
64983;DHT22;62161;54.688;25.256;2022-09-28T08:30:59;12.48;72.10
